Current Month

Pierce College

Hourly Data | America/Los_Angeles
as of 6/22/21 10:39 PM PDT
Date & Time Temp Max (°F) Temp Min (°F) RH (%) Dew Pt (°F) Latest Rain (In) Soil Temp (°F) Soil Moist (%) Wind Spd (mph) Wind Dir (°) Wind Gust (mph) Leaf Wet Raw (mV) Net Radiation (W/m²) Evap Pan Max Wind (mph) Evap Pan H2O Max Temp (°F) Evap Pan Level (In)
6/22/21 - 2200 74.0 71.6 46 50.5 0.00 83.3 28.4 2.2 SW | 224 6.1 266 -71 3.9 72.1 3.7
6/22/21 - 2100 78.0 73.9 40 49.5 0.00 84.8 28.4 0.9 S | 174 3.3 266 -73 2.6 80.3 3.7
6/22/21 - 2000 83.6 77.8 31 48.0 0.00 84.0 28.4 0.8 NNW | 327 3.4 265 -52 3.7 88.4 3.8
6/22/21 - 1900 86.8 83.3 27 46.8 0.00 84.4 28.3 1.1 NW | 326 5.0 264 -1 4.6 95.6 3.8
6/22/21 - 1800 90.5 86.7 27 50.1 0.00 83.8 28.3 2.5 WNW | 300 9.4 264 199 7.5 101.4 3.8
6/22/21 - 1700 93.1 89.2 25 49.8 0.00 83.7 28.2 3.7 WSW | 244 15.3 264 345 10.5 111.0 3.8
6/22/21 - 1600 92.1 88.8 23 47.7 0.00 83.1 28.1 4.4 SSE | 164 9.2 264 466 6.6 116.7 3.8
6/22/21 - 1500 92.6 89.7 30 54.6 0.00 82.7 28.0 3.1 ENE | 61 7.6 264 545 4.3 129.6 3.8
6/22/21 - 1400 91.0 87.2 32 55.7 0.00 82.7 27.9 2.4 ENE | 60 6.1 265 594 3.8 140.1 3.8
6/22/21 - 1300 88.3 83.8 36 56.3 0.00 82.3 27.8 2.1 NE | 48 5.9 264 604 3.5 139.7 3.8
6/22/21 - 1200 84.9 80.0 37 53.9 0.00 83.0 27.8 1.9 NNE | 27 5.6 264 568 3.6 139.3 3.8
6/22/21 - 1100 80.6 75.7 44 54.4 0.00 83.6 27.9 1.8 NE | 55 4.8 264 502 3.6 129.8 3.7
6/22/21 - 1000 76.2 69.9 54 55.8 0.00 82.8 28.0 1.3 N | 354 3.9 266 404 3.5 121.4 3.7
6/22/21 - 0900 69.9 64.5 67 55.3 0.00 82.8 28.1 1.1 N | 8 3.8 267 102 3.3 93.8 3.7
6/22/21 - 0800 64.7 60.4 77 55.4 0.00 83.0 28.2 0.6 NNE | 15 2.8 271 21 2.3 65.6 3.7
6/22/21 - 0700 60.5 56.4 88 54.8 0.00 83.6 28.2 0.1 SSE | 157 1.1 254 -3 0.5 56.1 3.7
6/22/21 - 0600 57.3 56.4 89 53.7 0.00 83.5 28.3 0.5 S | 186 1.8 262 -24 0.8 51.4 3.7
6/22/21 - 0500 58.2 56.6 88 54.0 0.00 84.1 28.3 0.8 SSW | 193 2.0 237 -30 0.8 52.4 3.7
6/22/21 - 0400 58.8 57.5 86 54.1 0.00 84.0 28.4 0.3 SE | 144 1.5 229 -46 0.0 55.3 3.7
6/22/21 - 0300 61.5 58.8 83 55.0 0.00 84.6 28.4 0.4 NE | 51 2.8 224 -61 0.6 59.8 3.7
6/22/21 - 0200 63.2 61.2 79 55.4 0.00 84.5 28.4 0.9 NE | 49 2.8 273 -65 1.1 62.6 3.7
6/22/21 - 0100 66.1 63.0 72 55.3 0.00 84.8 28.4 1.2 NE | 55 3.6 271 -66 2.0 64.6 3.7
6/22/21 - 0000 68.4 65.9 65 54.8 0.00 85.1 28.4 0.8 ENE | 74 3.4 270 -67 1.9 65.6 3.7
6/21/21 - 2300 70.4 68.1 57 53.4 0.00 84.8 28.5 0.3 E | 81 2.0 268 -67 0.6 65.8 3.7
6/21/21 - 2200 73.6 70.3 53 54.2 0.00 84.3 28.5 0.9 SSW | 212 3.7 267 -71 1.8 70.8 3.7
6/21/21 - 2100 78.0 73.5 47 54.1 0.00 84.8 28.5 1.5 SW | 216 5.0 267 -77 3.3 78.8 3.7
6/21/21 - 2000 82.7 78.0 41 54.6 0.00 84.7 28.4 3.9 WSW | 239 7.3 266 -43 5.3 85.7 3.8
6/21/21 - 1900 88.9 82.1 38 55.7 0.00 84.3 28.4 4.7 WSW | 240 8.7 266 78 6.1 93.9 3.8
6/21/21 - 1800 92.1 88.9 30 55.1 0.00 84.1 28.4 1.7 NW | 310 6.2 264 212 4.6 99.8 3.8
6/21/21 - 1700 92.7 89.7 26 51.2 0.00 83.6 28.2 2.6 ENE | 68 7.5 264 343 5.1 109.6 3.8
6/21/21 - 1600 92.3 90.2 23 48.2 0.00 82.6 28.1 3.2 ENE | 71 8.3 264 461 4.3 118.4 3.8
6/21/21 - 1500 92.2 89.7 25 50.8 0.00 82.6 28.0 2.7 ENE | 59 6.1 264 545 3.9 137.9 3.8
6/21/21 - 1400 91.0 88.2 29 53.2 0.00 82.8 28.0 2.2 NE | 54 6.8 264 594 4.4 149.9 3.8
6/21/21 - 1300 88.7 82.8 36 55.6 0.00 82.2 27.9 1.8 NE | 42 5.5 264 601 4.7 147.7 3.8
6/21/21 - 1200 83.5 76.6 44 56.8 0.00 79.7 27.9 1.4 NNE | 16 4.6 265 570 3.6 133.1 3.8
6/21/21 - 1100 76.7 69.6 55 56.2 0.00 78.9 27.9 1.4 NNE | 31 4.8 266 501 3.2 122.8 3.7
6/21/21 - 1000 69.9 63.8 68 56.4 0.00 79.7 28.0 1.2 N | 357 3.9 266 356 3.9 111.0 3.7
6/21/21 - 0900 63.9 60.9 80 56.2 0.00 80.0 28.2 1.3 NNE | 21 4.1 270 123 2.6 76.0 3.7
6/21/21 - 0800 61.4 60.2 86 56.4 0.00 80.5 28.2 0.7 NE | 56 2.9 273 28 1.7 67.3 3.7
6/21/21 - 0700 60.6 59.8 87 56.3 0.00 79.7 28.2 1.0 ENE | 60 3.9 274 1 1.4 63.8 3.7
6/21/21 - 0600 60.1 57.7 86 55.0 0.00 81.1 28.3 0.5 ENE | 70 2.7 274 -12 1.2 60.6 3.7
6/21/21 - 0500 59.0 57.6 86 54.1 0.00 82.4 28.4 0.4 SSW | 196 2.4 230 -27 1.6 52.7 3.7
6/21/21 - 0400 59.7 58.2 85 54.4 0.00 84.2 28.4 0.3 S | 183 1.3 226 -33 0.1 53.8 3.7
6/21/21 - 0300 60.6 59.6 83 55.0 0.00 85.4 28.4 0.2 SE | 133 1.9 246 -43 0.0 55.1 3.7
6/21/21 - 0200 61.4 60.3 81 54.9 0.00 84.7 28.5 0.0 SSE | 162 1.4 258 -54 0.0 55.0 3.7
6/21/21 - 0100 62.3 61.2 78 54.6 0.00 84.6 28.5 0.0 SE | 134 1.0 273 -60 0.0 57.2 3.7
6/21/21 - 0000 64.8 62.1 74 54.7 0.00 85.0 28.5 0.1 SE | 127 1.5 272 -66 0.5 61.5 3.7
6/20/21 - 2300 65.1 64.2 70 54.8 0.00 83.6 28.6 0.6 ENE | 64 3.1 270 -70 1.1 61.8 3.7
6/20/21 - 2200 67.3 64.6 67 54.7 0.00 84.7 28.6 0.6 E | 82 2.3 269 -74 1.6 65.8 3.7
6/20/21 - 2100 72.6 67.2 59 54.3 0.00 82.7 28.6 1.2 NE | 52 3.0 268 -79 2.8 72.6 3.7
6/20/21 - 2000 79.2 72.6 47 54.0 0.00 82.1 28.6 1.9 NE | 54 4.4 266 -44 2.2 82.7 3.8
6/20/21 - 1900 84.1 79.2 41 55.2 0.00 84.6 28.5 2.4 NE | 45 5.8 266 76 2.2 89.5 3.8
6/20/21 - 1800 86.6 83.8 37 56.2 0.00 84.4 28.4 2.8 NE | 48 5.5 265 213 2.9 95.1 3.8
6/20/21 - 1700 88.9 86.2 33 55.0 0.00 83.7 28.4 2.9 NE | 52 6.2 264 346 3.2 105.3 3.8
6/20/21 - 1600 89.9 88.2 30 53.4 0.00 83.6 28.2 3.4 NE | 47 6.4 264 466 3.2 114.1 3.8
6/20/21 - 1500 90.1 87.9 29 52.8 0.00 83.3 28.2 3.4 NE | 49 7.6 264 548 3.2 133.8 3.8
6/20/21 - 1400 91.0 87.9 30 54.6 0.00 82.7 28.1 3.0 ENE | 60 6.9 264 594 4.1 143.2 3.8
6/20/21 - 1300 88.6 85.9 38 58.1 0.00 83.0 28.0 3.0 NE | 53 7.2 264 600 3.5 146.6 3.8
6/20/21 - 1200 86.7 83.0 41 59.0 0.00 82.7 28.0 2.3 NE | 40 6.1 264 564 3.1 144.5 3.8
6/20/21 - 1100 83.8 78.8 43 56.5 0.00 82.5 28.0 1.7 NE | 39 5.1 264 499 2.7 133.8 3.7
6/20/21 - 1000 78.8 72.0 53 57.3 0.00 82.9 28.1 1.1 N | 9 4.3 266 402 3.8 122.1 3.7
6/20/21 - 0900 72.0 65.8 70 57.6 0.00 83.1 28.3 1.1 N | 353 3.8 268 110 2.5 95.0 3.7
6/20/21 - 0800 65.8 62.6 78 57.2 0.00 83.5 28.4 0.9 NE | 45 2.9 271 11 1.6 68.9 3.7
6/20/21 - 0700 62.7 60.0 85 56.8 0.00 83.5 28.4 0.4 ENE | 68 2.3 274 -2 1.0 61.1 3.7
6/20/21 - 0600 60.3 59.5 86 55.8 0.00 83.9 28.4 0.1 SSE | 162 1.0 230 -27 0.0 55.3 3.7
6/20/21 - 0500 61.1 59.9 85 55.7 0.00 87.6 28.5 0.4 S | 174 2.0 226 -39 0.4 56.2 3.7
6/20/21 - 0400 62.1 60.9 82 56.2 0.00 88.1 28.5 0.1 S | 184 1.2 269 -47 0.0 56.7 3.7
6/20/21 - 0300 63.2 61.9 80 56.4 0.00 84.8 28.5 0.1 SSE | 164 1.1 274 -53 0.5 58.1 3.7
6/20/21 - 0200 63.7 62.8 77 56.1 0.00 85.0 28.6 0.3 S | 171 1.6 273 -54 0.5 59.7 3.7
6/20/21 - 0100 65.5 63.5 74 56.1 0.00 85.1 28.6 0.3 SSE | 152 2.3 271 -57 0.5 63.3 3.7
6/20/21 - 0000 66.5 65.4 72 56.8 0.00 85.4 28.7 0.4 ENE | 73 2.0 271 -62 0.8 64.6 3.7
6/19/21 - 2300 68.2 66.3 70 57.0 0.00 85.4 28.7 0.5 ESE | 113 1.7 270 -68 1.1 66.9 3.7
6/19/21 - 2200 71.4 68.1 65 56.9 0.00 85.5 28.7 1.1 E | 85 4.1 269 -72 1.7 71.2 3.7
6/19/21 - 2100 76.1 71.2 57 57.2 0.00 85.2 28.7 1.5 ENE | 76 4.9 268 -77 2.3 78.0 3.7
6/19/21 - 2000 82.9 75.9 46 57.3 0.00 84.9 28.6 1.8 ENE | 75 4.5 266 -46 3.0 87.7 3.7
6/19/21 - 1900 89.1 82.9 39 57.6 0.00 84.8 28.6 2.5 NE | 46 5.5 266 73 2.1 97.8 3.8
6/19/21 - 1800 92.0 89.2 34 58.3 0.00 84.8 28.5 2.6 NE | 39 5.2 265 209 3.0 103.2 3.8
6/19/21 - 1700 94.8 91.6 31 58.2 0.00 84.1 28.4 2.7 NE | 52 6.0 265 336 3.6 112.9 3.8
6/19/21 - 1600 94.2 92.1 31 58.3 0.00 83.6 28.3 2.8 NE | 38 5.9 265 450 3.0 117.7 3.8
6/19/21 - 1500 93.5 91.2 33 59.0 0.00 82.5 28.2 2.9 NE | 53 6.2 264 538 3.0 132.9 3.8
6/19/21 - 1400 93.5 88.9 35 59.8 0.00 82.7 28.1 2.5 NE | 52 5.8 265 586 3.5 142.5 3.8
6/19/21 - 1300 90.2 86.7 39 60.1 0.00 82.7 28.0 2.3 NE | 37 6.2 264 594 4.5 138.8 3.8
6/19/21 - 1200 86.8 83.6 43 60.1 0.00 82.6 28.0 2.0 NE | 34 5.7 265 560 3.4 135.5 3.8
6/19/21 - 1100 83.7 77.8 49 60.0 0.00 82.8 28.1 1.7 NE | 36 4.7 266 489 3.4 127.5 3.8
6/19/21 - 1000 78.3 72.2 58 59.5 0.00 82.9 28.2 1.2 N | 4 3.8 266 387 3.4 119.5 3.8
6/19/21 - 0900 72.2 66.8 71 59.2 0.00 83.1 28.4 1.1 NNE | 20 3.8 268 119 2.3 93.6 3.7
6/19/21 - 0800 66.8 63.3 80 58.9 0.00 83.7 28.4 0.6 NE | 54 2.5 271 10 1.8 69.7 3.7
6/19/21 - 0700 63.3 61.4 87 58.1 0.00 83.6 28.4 0.3 SE | 133 2.3 275 -16 1.7 62.6 3.7
6/19/21 - 0600 62.7 61.1 86 57.5 0.00 83.7 28.5 0.3 S | 182 1.9 260 -42 1.1 60.4 3.7
6/19/21 - 0500 64.1 62.4 83 57.9 0.00 84.1 28.5 0.5 E | 93 1.8 266 -49 0.6 62.9 3.7
6/19/21 - 0400 64.6 63.8 81 58.2 0.00 84.4 28.5 0.7 NE | 55 3.2 273 -46 1.2 63.4 3.7
6/19/21 - 0300 64.8 64.2 80 58.0 0.00 84.4 28.6 0.5 ENE | 64 2.1 273 -45 0.6 63.4 3.7
6/19/21 - 0200 65.6 64.3 78 58.0 0.00 84.8 28.6 0.2 E | 88 1.6 272 -51 0.7 63.4 3.7
6/19/21 - 0100 66.4 65.4 76 58.1 0.00 85.0 28.6 0.4 ENE | 70 2.4 271 -54 1.1 64.8 3.7
6/19/21 - 0000 67.9 66.2 72 57.8 0.00 85.0 28.7 0.8 ENE | 78 3.8 270 -58 1.5 66.6 3.7
6/18/21 - 2300 68.9 67.7 68 57.7 0.00 85.0 28.7 0.6 NE | 50 2.2 270 -61 0.6 67.6 3.7
6/18/21 - 2200 72.0 68.7 64 57.7 0.00 85.2 28.7 1.3 NE | 43 3.0 269 -66 2.4 70.9 3.7
6/18/21 - 2100 75.6 71.8 58 57.8 0.00 85.3 28.7 1.1 ENE | 65 3.3 268 -68 1.6 76.8 3.7
6/18/21 - 2000 81.1 75.6 51 58.4 0.00 85.0 28.6 1.6 ENE | 59 3.6 267 -36 2.1 86.2 3.8
6/18/21 - 1900 85.9 80.6 45 59.6 0.00 84.6 28.6 2.3 NE | 47 6.2 266 72 2.3 95.2 3.8
6/18/21 - 1800 92.0 85.6 39 60.4 0.00 86.8 28.5 2.8 NE | 46 5.5 266 203 2.4 104.8 3.8
6/18/21 - 1700 94.0 91.7 35 60.8 0.00 86.7 28.4 2.5 NE | 48 6.7 265 332 2.8 112.3 3.8
6/18/21 - 1600 93.9 91.8 34 60.6 0.00 86.5 28.4 2.5 NE | 49 5.3 265 447 3.1 117.4 3.8
6/18/21 - 1500 93.2 89.6 36 60.8 0.00 83.5 28.3 2.7 NE | 45 7.1 265 467 3.9 133.7 3.8
6/18/21 - 1400 93.1 87.2 36 59.7 0.00 82.9 28.2 1.9 NE | 37 5.3 264 594 3.4 139.7 3.8
6/18/21 - 1300 90.2 83.0 40 59.0 0.00 84.0 28.2 1.6 NNE | 30 4.5 265 533 2.7 140.2 3.8
6/18/21 - 1200 84.0 79.9 47 59.2 0.00 84.5 28.3 1.9 NNE | 22 5.3 266 358 2.7 124.2 3.7
6/18/21 - 1100 80.2 74.9 53 59.5 0.00 84.8 28.3 1.8 NE | 42 5.1 266 465 3.9 127.0 3.7
6/18/21 - 1000 76.2 70.9 63 59.3 0.00 85.4 28.3 0.9 NE | 37 3.6 267 226 3.3 108.3 3.7
6/18/21 - 0900 71.1 66.9 72 59.3 0.00 83.4 28.4 1.2 NE | 56 4.0 268 145 2.7 87.9 3.7
6/18/21 - 0800 67.9 66.3 75 58.8 0.00 85.6 28.5 1.5 ENE | 57 3.8 270 20 2.5 73.2 3.7
6/18/21 - 0700 68.6 66.5 70 57.7 0.00 81.4 28.5 2.2 ESE | 102 7.8 270 -14 3.8 69.1 3.7
6/18/21 - 0600 67.8 66.5 72 57.9 0.00 84.1 28.5 1.9 WSW | 243 6.4 270 -46 3.9 66.0 3.7
6/18/21 - 0500 68.2 66.2 73 58.2 0.00 85.6 28.6 1.7 NE | 54 6.3 271 -41 4.2 67.7 3.7
6/18/21 - 0400 68.4 66.6 74 58.7 0.00 83.1 28.6 1.6 ESE | 107 5.1 270 -42 3.0 67.8 3.7
6/18/21 - 0300 67.9 66.8 74 58.8 0.00 85.1 28.6 1.2 NE | 54 5.6 270 -42 2.2 68.5 3.7
6/18/21 - 0200 69.0 67.4 72 58.7 0.00 87.6 28.7 1.3 ENE | 71 4.7 270 -50 1.9 68.3 3.7
6/18/21 - 0100 70.4 68.1 68 58.4 0.00 85.1 28.7 1.5 ENE | 76 7.3 270 -40 3.9 71.6 3.7
6/18/21 - 0000 71.6 70.1 62 57.3 0.00 84.9 28.7 0.5 ESE | 104 2.3 268 -57 0.8 71.0 3.7
6/17/21 - 2300 74.5 71.5 55 56.3 0.00 85.0 28.7 0.8 E | 82 4.0 267 -60 1.9 72.1 3.7
6/17/21 - 2200 77.4 74.1 51 55.9 0.00 85.1 28.7 0.7 ESE | 106 3.4 266 -64 1.7 75.8 3.7
6/17/21 - 2100 81.3 77.3 46 56.4 0.00 85.0 28.7 1.0 E | 83 3.8 266 -63 1.8 81.5 3.8
6/17/21 - 2000 87.4 81.3 40 57.3 0.00 84.7 28.7 1.6 ENE | 57 4.5 266 -37 2.1 91.2 3.8
6/17/21 - 1900 90.5 87.2 32 55.6 0.00 84.4 28.6 2.0 NE | 50 3.8 264 73 1.9 96.3 3.8
6/17/21 - 1800 96.1 90.3 25 52.4 0.00 84.0 28.5 2.2 E | 101 6.5 264 197 5.1 106.5 3.8
6/17/21 - 1700 100.2 95.1 19 49.5 0.00 83.6 28.4 2.7 E | 84 6.2 263 326 4.1 113.4 3.8
6/17/21 - 1600 100.8 98.6 18 49.4 0.00 83.3 28.3 2.9 NE | 55 6.0 263 439 3.9 119.9 3.8
6/17/21 - 1500 100.3 98.4 20 52.0 0.00 83.1 28.2 2.5 NE | 47 6.1 264 520 3.7 144.5 3.8
6/17/21 - 1400 98.5 94.9 22 52.0 0.00 82.9 28.2 2.3 NE | 45 5.7 264 559 2.9 150.1 3.8
6/17/21 - 1300 95.0 90.1 28 54.9 0.00 82.2 28.1 2.5 NE | 53 6.0 264 584 3.0 147.3 3.8
6/17/21 - 1200 90.9 88.3 36 59.0 0.00 83.0 28.1 2.7 NE | 44 6.6 264 562 3.6 140.5 3.8
6/17/21 - 1100 88.6 85.6 36 56.7 0.00 82.4 28.2 1.7 NE | 51 4.2 264 317 2.9 134.9 3.7
6/17/21 - 1000 87.1 79.7 42 57.4 0.00 82.3 28.2 1.4 NE | 56 4.2 265 356 3.3 127.4 3.7
6/17/21 - 0900 79.7 72.7 53 57.5 0.00 82.8 28.4 0.7 N | 352 3.0 266 114 2.3 102.0 3.7
6/17/21 - 0800 72.8 68.7 61 56.9 0.00 82.8 28.4 0.5 E | 98 2.5 268 5 1.1 73.1 3.7
6/17/21 - 0700 68.9 64.0 71 56.1 0.00 82.9 28.4 0.2 ESE | 123 1.4 269 -22 0.0 64.7 3.7
6/17/21 - 0600 65.1 63.8 73 55.6 0.00 83.4 28.5 0.2 SSE | 160 1.1 271 -44 0.0 58.6 3.7
6/17/21 - 0500 65.4 64.5 69 54.7 0.00 83.7 28.5 0.2 SSE | 156 1.2 270 -46 0.0 60.1 3.7
6/17/21 - 0400 65.6 64.5 68 54.6 0.00 83.8 28.6 0.2 SSE | 160 1.2 270 -49 0.6 60.5 3.7
6/17/21 - 0300 66.9 65.3 66 54.6 0.00 84.2 28.6 0.4 SSE | 164 1.6 269 -53 0.0 61.4 3.7
6/17/21 - 0200 68.1 66.5 64 54.7 0.00 84.4 28.7 0.1 SSE | 164 1.0 268 -53 0.0 64.0 3.7
6/17/21 - 0100 68.0 67.3 65 55.5 0.00 84.5 28.7 0.3 S | 181 1.5 268 -48 0.7 65.4 3.7
6/17/21 - 0000 70.4 67.6 63 55.6 0.00 84.5 28.7 0.1 S | 189 0.9 268 -58 0.7 69.0 3.7
6/16/21 - 2300 71.8 70.1 60 56.2 0.00 84.6 28.7 1.3 NE | 45 3.8 268 -66 1.1 73.0 3.8
6/16/21 - 2200 76.2 71.7 56 57.0 0.00 84.8 28.7 1.6 NE | 44 4.1 267 -67 1.5 77.9 3.7
6/16/21 - 2100 82.5 76.0 45 56.0 0.00 84.0 28.7 1.6 ENE | 57 3.6 266 -73 2.1 85.2 3.7
6/16/21 - 2000 87.9 82.4 32 52.5 0.00 87.4 28.6 2.1 ENE | 76 6.1 264 -48 2.9 90.6 3.8
6/16/21 - 1900 91.5 87.9 28 52.1 0.00 84.1 28.6 2.5 NE | 45 6.5 264 47 2.0 100.1 3.8
6/16/21 - 1800 93.9 91.2 27 53.6 0.00 83.6 28.5 2.9 NE | 42 6.2 264 190 2.4 101.9 3.8
6/16/21 - 1700 95.6 92.9 27 54.9 0.00 83.4 28.4 2.8 NE | 53 7.1 264 322 3.6 113.6 3.8
6/16/21 - 1600 95.6 92.9 28 56.2 0.00 82.5 28.3 3.1 E | 84 8.8 264 450 4.6 119.8 3.8
6/16/21 - 1500 97.9 94.3 29 58.2 0.00 82.4 28.2 2.8 NE | 56 9.3 264 511 6.3 134.5 3.8
6/16/21 - 1400 96.0 94.0 30 58.5 0.00 82.2 28.2 2.8 ENE | 57 6.3 264 579 3.5 141.1 3.8
6/16/21 - 1300 96.0 91.8 31 58.9 0.00 81.7 28.0 2.3 NE | 46 5.4 264 584 3.9 144.7 3.8
6/16/21 - 1200 92.1 89.4 33 58.2 0.00 81.8 28.0 2.5 NE | 46 5.0 264 542 2.9 140.3 3.8
6/16/21 - 1100 89.7 86.1 36 57.4 0.00 81.9 28.0 2.3 NE | 44 5.4 264 454 2.4 130.3 3.8
6/16/21 - 1000 86.8 81.0 35 54.8 0.00 81.9 28.1 1.9 NNE | 33 5.5 264 358 2.4 123.0 3.7
6/16/21 - 0900 81.0 72.2 49 55.1 0.00 82.2 28.2 2.5 SW | 230 7.5 266 128 5.4 102.9 3.7
6/16/21 - 0800 72.2 68.8 61 56.1 0.00 82.4 28.3 1.8 WSW | 237 5.1 268 36 4.0 76.3 3.7
6/16/21 - 0700 68.8 66.9 65 55.6 0.00 82.7 28.4 1.1 SE | 141 3.7 268 -22 2.0 67.2 3.7
6/16/21 - 0600 67.1 64.8 69 55.2 0.00 82.7 28.4 1.4 SSW | 195 3.7 269 -38 2.9 64.0 3.7
6/16/21 - 0500 68.1 65.4 66 55.1 0.00 82.5 28.4 0.3 ENE | 59 2.4 269 -59 0.1 64.0 3.7
6/16/21 - 0400 70.0 67.9 63 55.9 0.00 83.2 28.4 1.1 NE | 36 3.4 268 -63 1.0 67.5 3.7
6/16/21 - 0300 73.0 70.0 55 54.6 0.00 83.4 28.4 1.1 ENE | 68 3.9 268 -61 2.2 68.2 3.7
6/16/21 - 0200 75.0 72.2 48 52.2 0.00 83.5 28.5 0.6 S | 169 2.1 266 -55 0.8 66.2 3.7
6/16/21 - 0100 78.2 74.8 43 52.6 0.00 83.6 28.5 0.3 S | 177 1.5 266 -59 0.6 69.6 3.7
6/16/21 - 0000 80.2 78.0 38 51.0 0.00 83.8 28.5 0.3 ESE | 111 3.6 265 -67 0.9 70.4 3.7
6/15/21 - 2300 82.6 79.2 27 43.8 0.00 83.7 28.5 0.6 SSE | 152 2.2 264 -67 1.1 74.8 3.7
6/15/21 - 2200 89.5 81.9 22 43.5 0.00 83.6 28.5 0.9 SSE | 166 5.7 263 -75 3.6 82.5 3.7
6/15/21 - 2100 91.4 89.3 18 40.8 0.00 83.3 28.5 3.3 SSW | 209 6.4 263 -84 4.4 87.5 3.8
6/15/21 - 2000 95.7 91.3 13 35.3 0.00 83.3 28.4 5.3 SW | 224 10.3 262 -63 6.6 93.3 3.8
6/15/21 - 1900 101.2 95.5 10 32.1 0.00 82.7 28.4 2.9 W | 269 9.0 262 -25 6.1 105.1 3.8
6/15/21 - 1800 103.2 101.1 10 34.3 0.00 82.3 28.3 1.9 NW | 314 6.6 262 122 5.8 116.0 3.8
6/15/21 - 1700 107.6 102.0 10 36.1 0.00 82.0 28.2 4.5 WSW | 255 9.9 261 229 7.5 122.5 3.8
6/15/21 - 1600 109.2 106.2 9 36.2 0.00 81.5 28.1 2.7 WNW | 303 8.4 261 356 6.4 128.1 3.8
6/15/21 - 1500 108.5 105.6 9 36.2 0.00 81.0 28.0 4.7 WSW | 247 10.1 261 518 7.4 145.1 3.8
6/15/21 - 1400 108.1 103.8 9 34.1 0.00 80.7 27.9 3.3 WSW | 242 8.8 261 536 6.3 158.7 3.8
6/15/21 - 1300 105.8 101.7 13 41.9 0.00 80.3 27.8 2.5 SW | 229 8.1 261 588 5.8 163.6 3.8
6/15/21 - 1200 102.3 95.5 18 48.3 0.00 80.2 27.8 1.5 NNW | 339 7.8 262 550 5.8 152.4 3.8
6/15/21 - 1000 95.6 89.2 25 52.3 0.00 80.3 27.9 1.6 NE | 44 4.7 263 431 3.0 136.5 3.8
6/15/21 - 0900 89.2 80.6 36 55.5 0.00 80.4 28.0 0.9 NNE | 20 2.7 264 370 1.9 131.8 3.7
6/15/21 - 0800 80.8 73.1 48 55.0 0.00 80.8 28.1 0.9 NNE | 24 3.3 266 107 1.9 104.1 3.7
6/15/21 - 0700 73.2 68.2 55 53.7 0.00 80.9 28.2 0.8 NE | 38 3.2 268 -5 1.6 71.8 3.7
6/15/21 - 0600 68.2 62.0 68 52.7 0.00 81.3 28.2 0.8 S | 191 3.7 269 -33 2.4 60.4 3.7
6/15/21 - 0500 63.6 62.0 69 52.2 0.00 81.6 28.3 0.4 SSE | 162 1.7 270 -53 0.8 57.0 3.7
6/15/21 - 0400 64.6 63.4 66 52.4 0.00 81.6 28.3 0.5 S | 169 2.2 269 -55 0.9 57.4 3.7
6/15/21 - 0300 65.6 63.6 67 53.4 0.00 81.9 28.3 0.6 SSE | 163 2.3 270 -56 0.9 58.2 3.7
6/15/21 - 0200 67.8 65.5 61 52.6 0.00 82.1 28.4 0.5 SSE | 164 1.6 268 -57 1.0 58.8 3.7
6/15/21 - 0100 69.5 67.2 57 52.1 0.00 82.4 28.4 0.3 SSE | 160 1.5 268 -59 0.1 61.4 3.7
6/15/21 - 0000 71.5 69.4 53 52.2 0.00 82.2 28.4 0.3 SSE | 166 1.5 267 -61 1.1 63.5 3.7
6/14/21 - 2300 73.1 71.0 51 52.8 0.00 81.7 28.4 0.5 S | 170 1.9 266 -64 1.4 66.7 3.7
6/14/21 - 2200 79.1 72.6 44 52.7 0.00 82.4 28.4 0.6 S | 188 2.6 266 -70 2.1 71.5 3.7
6/14/21 - 2100 80.7 78.6 40 52.9 0.00 82.3 28.4 1.6 SSW | 208 3.1 266 -74 1.9 75.3 3.7
6/14/21 - 2000 85.0 80.4 35 52.6 0.00 82.0 28.4 1.8 SW | 230 4.5 265 -84 3.3 82.8 3.8
6/14/21 - 1900 90.7 84.8 29 51.8 0.00 80.1 28.4 2.4 W | 271 7.7 264 -57 6.4 95.5 3.8
6/14/21 - 1800 95.3 90.4 22 49.1 0.00 79.9 28.3 3.2 W | 276 9.3 264 64 6.9 102.9 3.8
6/14/21 - 1700 99.2 95.1 18 46.5 0.00 80.4 28.2 1.7 NNW | 329 6.1 263 205 6.0 109.5 3.8
6/14/21 - 1600 102.0 98.6 17 47.5 0.00 78.6 28.1 2.0 NW | 319 8.5 263 340 6.8 114.6 3.8
6/14/21 - 1500 101.9 99.7 18 49.7 0.00 80.0 28.0 2.4 NW | 310 11.6 263 453 7.5 121.8 3.8
6/14/21 - 1400 102.3 98.2 18 50.2 0.00 79.5 27.9 2.3 NW | 316 9.1 264 533 6.3 141.6 3.8
6/14/21 - 1300 102.3 97.0 18 48.2 0.00 79.2 27.8 1.6 W | 279 6.2 263 578 5.7 152.0 3.8
6/14/21 - 1200 99.0 92.7 20 48.8 0.00 79.1 27.7 1.6 NNW | 334 6.2 263 595 5.3 157.9 3.8
6/14/21 - 1100 93.5 87.1 27 51.8 0.00 79.3 27.7 1.4 NNW | 348 5.4 264 568 5.1 153.5 3.8
6/14/21 - 1000 88.6 82.7 33 52.8 0.00 78.9 27.7 1.8 NE | 42 4.6 264 505 2.7 141.3 3.8
6/14/21 - 0900 83.1 77.6 40 53.8 0.00 79.0 27.8 2.2 NE | 34 4.7 264 412 2.2 130.2 3.8
6/14/21 - 0800 77.6 70.2 49 53.0 0.00 79.4 28.0 1.4 NE | 41 6.0 266 101 2.7 104.1 3.7
6/14/21 - 0700 70.3 64.7 62 54.2 0.00 79.7 28.0 0.5 NNE | 33 2.2 269 -20 0.8 67.0 3.7
6/14/21 - 0600 64.8 59.1 75 53.6 0.00 79.8 28.0 0.1 NE | 55 1.3 271 -39 0.0 57.3 3.7
6/14/21 - 0500 60.1 59.0 80 53.2 0.00 80.1 28.1 0.5 SSE | 157 2.0 272 -50 0.0 52.6 3.7
6/14/21 - 0400 61.2 59.4 78 53.4 0.00 80.3 28.1 0.5 SSE | 159 1.3 273 -54 0.0 52.9 3.7
6/14/21 - 0300 62.6 60.9 74 53.8 0.00 78.2 28.1 0.3 S | 184 1.6 271 -54 0.0 54.0 3.7
6/14/21 - 0200 64.2 62.3 71 53.7 0.00 79.2 28.2 0.1 SSE | 164 1.3 271 -57 0.0 55.2 3.7
6/14/21 - 0100 65.6 63.8 65 53.0 0.00 78.7 28.2 0.1 ESE | 119 1.2 269 -59 0.0 55.9 3.7
6/14/21 - 0000 66.9 65.4 61 52.5 0.00 78.4 28.2 0.2 SSE | 168 1.2 268 -61 0.0 59.9 3.7
6/13/21 - 2300 69.4 66.7 57 52.2 0.00 83.6 28.2 0.2 SSE | 153 1.2 268 -65 0.6 63.9 3.7
6/13/21 - 2200 73.4 69.3 50 52.1 0.00 81.3 28.2 0.7 S | 170 5.0 267 -72 2.4 69.5 3.7
6/13/21 - 2100 74.9 73.1 45 51.5 0.00 81.2 28.3 1.9 SSW | 204 5.5 266 -79 4.0 72.2 3.7
6/13/21 - 2000 77.6 74.8 37 48.0 0.00 81.1 28.2 3.0 SW | 228 6.9 266 -84 5.1 77.1 3.8
6/13/21 - 1900 84.4 77.5 29 45.2 0.00 80.7 28.2 3.2 WSW | 238 8.2 264 -54 5.8 88.2 3.8
6/13/21 - 1800 88.3 84.0 22 43.3 0.00 80.5 28.1 2.1 NW | 309 8.2 264 73 6.7 95.5 3.8
6/13/21 - 1700 93.1 88.2 22 46.4 0.00 80.0 28.1 2.4 NW | 310 8.1 263 216 7.1 102.7 3.8
6/13/21 - 1600 95.2 91.9 20 47.3 0.00 79.5 28.0 2.3 NW | 306 7.8 263 350 6.0 111.4 3.8
6/13/21 - 1500 95.4 91.9 19 46.2 0.00 78.8 27.9 2.9 NW | 321 11.1 263 463 8.1 117.6 3.8
6/13/21 - 1400 94.9 90.6 21 45.9 0.00 78.7 27.8 3.1 S | 175 9.2 263 550 8.3 133.6 3.8
6/13/21 - 1300 94.0 89.3 22 46.8 0.00 78.1 27.7 2.1 ENE | 69 6.4 264 601 4.9 143.2 3.8
6/13/21 - 1200 90.0 86.1 26 49.3 0.00 77.8 27.6 1.8 N | 7 4.9 263 610 4.6 143.9 3.8
6/13/21 - 1100 87.0 80.9 28 47.6 0.00 77.8 27.5 1.4 NNE | 27 5.0 263 580 3.2 142.9 3.8
6/13/21 - 1000 82.2 77.8 36 50.3 0.00 77.8 27.6 1.6 NE | 54 5.9 263 512 4.1 132.7 3.7
6/13/21 - 0900 78.5 71.9 41 50.2 0.00 78.2 27.7 1.1 NE | 34 4.5 264 412 2.2 126.8 3.7
6/13/21 - 0800 72.3 64.9 53 49.9 0.00 78.2 27.8 0.9 NNE | 17 3.7 265 103 3.4 97.4 3.7
6/13/21 - 0700 65.0 59.2 60 48.8 0.00 80.1 27.9 0.7 NE | 36 2.2 269 -20 1.6 63.4 3.7
6/13/21 - 0600 59.3 55.2 72 48.3 0.00 79.1 27.9 0.1 SE | 144 1.3 270 -41 0.0 52.5 3.7
6/13/21 - 0500 56.5 55.0 73 47.4 0.00 79.0 28.0 0.4 S | 172 1.5 271 -53 0.8 48.6 3.7
6/13/21 - 0400 57.8 55.5 72 47.8 0.00 79.3 28.0 0.3 SSE | 155 1.4 271 -57 0.0 49.2 3.7
6/13/21 - 0300 58.8 57.2 70 48.3 0.00 79.5 28.0 0.4 SSE | 160 1.5 271 -60 0.0 50.6 3.7
6/13/21 - 0200 60.7 58.5 68 49.2 0.00 79.9 28.0 0.4 SSE | 163 1.3 270 -62 0.0 51.9 3.7
6/13/21 - 0100 63.0 60.6 66 50.3 0.00 79.9 28.1 0.5 S | 181 1.5 269 -63 0.4 52.8 3.7
6/13/21 - 0000 64.6 62.6 63 50.5 0.00 80.1 28.1 0.1 S | 179 1.1 269 -65 1.0 55.4 3.7
6/12/21 - 2300 67.1 64.2 56 49.9 0.00 80.3 28.1 0.1 SSE | 160 1.2 268 -70 0.2 57.6 3.7
6/12/21 - 2200 69.4 66.7 51 49.3 0.00 80.2 28.1 0.4 ESE | 107 2.0 267 -73 0.6 61.8 3.7
6/12/21 - 2100 73.6 69.0 49 51.3 0.00 80.1 28.2 0.8 ESE | 116 3.1 266 -79 1.9 67.4 3.7
6/12/21 - 2000 80.6 73.4 23 35.3 0.00 79.9 28.1 0.6 S | 169 3.2 265 -86 1.9 76.1 3.8
6/12/21 - 1900 86.7 80.4 16 33.0 0.00 79.7 28.1 1.0 NW | 318 5.1 263 -62 4.8 85.9 3.8
6/12/21 - 1800 89.8 86.4 16 35.6 0.00 79.5 28.0 1.9 NW | 315 5.0 262 67 6.1 94.6 3.8
6/12/21 - 1700 94.3 89.8 14 36.2 0.00 78.9 28.0 1.6 NNW | 331 5.5 262 209 5.4 100.6 3.8
6/12/21 - 1600 95.4 93.0 13 36.3 0.00 78.6 27.9 1.8 NNW | 331 7.1 262 346 6.9 110.0 3.8
6/12/21 - 1500 96.3 91.9 13 35.8 0.00 78.0 27.7 2.9 WNW | 294 10.2 262 464 9.0 116.7 3.8
6/12/21 - 1400 96.2 91.5 18 43.8 0.00 76.6 27.7 1.8 NNE | 15 5.4 262 543 4.6 135.2 3.8
6/12/21 - 1300 93.2 89.8 20 44.6 0.00 76.8 27.6 2.6 NE | 54 7.1 263 594 3.5 145.9 3.8
6/12/21 - 1200 92.2 88.7 20 43.6 0.00 76.9 27.5 2.2 NE | 45 5.7 263 603 3.6 151.4 3.8
6/12/21 - 1100 90.0 83.9 19 40.6 0.00 76.8 27.4 1.5 N | 11 6.3 262 572 4.0 140.4 3.8
6/12/21 - 1000 84.2 79.4 23 40.8 0.00 76.7 27.4 1.8 ENE | 60 5.3 263 507 3.8 130.0 3.7
6/12/21 - 0900 79.6 72.5 30 42.5 0.00 77.1 27.6 1.5 ENE | 60 4.9 263 413 3.6 123.4 3.7
6/12/21 - 0800 72.5 64.5 45 45.5 0.00 77.1 27.7 0.6 NNE | 12 3.2 264 101 2.3 98.1 3.7
6/12/21 - 0700 64.6 59.1 56 45.9 0.00 77.5 27.8 0.2 NNW | 342 1.9 268 -18 1.0 59.0 3.7
6/12/21 - 0600 59.1 53.5 70 46.2 0.00 77.9 27.8 0.3 SSE | 154 1.5 270 -41 0.0 49.3 3.7
6/12/21 - 0500 55.0 53.4 74 46.0 0.00 78.0 27.8 0.3 S | 180 1.3 270 -53 1.0 44.8 3.7
6/12/21 - 0400 56.1 54.5 72 46.5 0.00 78.3 27.8 0.3 SSE | 161 1.6 271 -56 0.7 45.8 3.7
6/12/21 - 0300 57.6 55.7 69 46.6 0.00 78.4 27.9 0.0 SSE | 157 0.9 270 -58 0.0 49.1 3.7
6/12/21 - 0200 58.5 57.1 67 46.8 0.00 78.6 28.0 0.7 SSE | 158 2.1 269 -61 1.0 50.3 3.7
6/12/21 - 0100 60.7 58.2 63 46.7 0.00 78.8 28.0 0.6 SSE | 157 1.2 269 -62 0.6 52.5 3.7
6/12/21 - 0000 63.7 60.4 56 46.0 0.00 79.1 28.0 0.3 S | 175 1.3 268 -64 0.5 56.4 3.7
6/11/21 - 2300 65.8 63.6 49 45.3 0.00 78.9 28.0 0.5 ESE | 121 2.9 267 -69 1.8 58.0 3.7
6/11/21 - 2200 67.9 65.0 42 42.3 0.00 79.1 28.0 0.3 SSE | 160 1.8 266 -68 0.8 58.7 3.7
6/11/21 - 2100 72.6 67.4 31 36.6 0.00 79.2 28.0 0.2 S | 180 1.6 265 -73 0.9 63.2 3.7
6/11/21 - 2000 77.3 72.6 22 33.8 0.00 79.0 28.0 1.6 SSW | 208 4.5 264 -84 3.0 72.5 3.7
6/11/21 - 1900 82.2 77.2 21 35.6 0.00 78.8 28.0 2.1 WNW | 287 7.3 264 -58 5.1 81.9 3.8
6/11/21 - 1800 85.2 81.8 17 33.9 0.00 78.4 28.0 2.1 NW | 309 7.3 263 68 5.9 88.4 3.8
6/11/21 - 1700 87.2 84.7 18 38.1 0.00 78.1 27.9 3.1 WNW | 287 9.7 263 215 6.9 94.8 3.8
6/11/21 - 1600 88.4 84.7 20 40.1 0.00 77.7 27.8 5.0 WSW | 252 12.3 263 356 8.6 103.0 3.8
6/11/21 - 1500 89.9 85.6 20 42.4 0.00 75.3 27.7 2.5 NW | 325 10.1 263 466 7.5 108.3 3.8
6/11/21 - 1400 88.0 85.0 24 45.5 0.00 74.1 27.7 2.7 NE | 52 6.4 264 552 3.6 121.1 3.8
6/11/21 - 1300 86.3 84.0 27 47.7 0.00 73.4 27.5 3.0 ENE | 59 8.1 264 602 4.3 133.6 3.8
6/11/21 - 1200 86.1 83.1 24 43.8 0.00 74.7 27.4 2.6 NE | 56 7.5 263 608 5.4 136.4 3.8
6/11/21 - 1100 84.5 80.1 21 37.8 0.00 74.1 27.4 2.3 NE | 53 5.8 262 578 4.6 134.6 3.8
6/11/21 - 1000 80.6 75.1 22 36.6 0.00 76.7 27.4 1.8 NNE | 33 5.2 262 511 3.7 128.8 3.7
6/11/21 - 0900 75.3 68.9 31 40.0 0.00 76.4 27.5 1.4 NE | 46 4.3 263 413 3.2 122.1 3.7
6/11/21 - 0800 68.9 62.2 43 41.8 0.00 78.0 27.7 1.0 NNE | 26 3.7 264 100 2.2 97.7 3.7
6/11/21 - 0700 62.2 57.1 53 42.5 0.00 78.8 27.7 0.7 WNW | 296 3.5 268 -17 2.2 59.6 3.7
6/11/21 - 0600 57.1 50.9 68 42.9 0.00 79.2 27.7 0.2 ESE | 112 1.3 269 -41 0.0 48.4 3.7
6/11/21 - 0500 51.9 51.1 71 42.4 0.00 77.4 27.7 0.4 SSE | 162 1.5 270 -55 0.0 43.8 3.7
6/11/21 - 0400 53.2 51.4 69 42.2 0.00 77.5 27.8 0.2 SSE | 163 1.5 270 -58 0.8 42.8 3.7
6/11/21 - 0300 54.6 52.7 67 42.8 0.00 77.9 27.8 0.3 SSE | 164 1.4 270 -59 0.6 44.1 3.7
6/11/21 - 0200 55.8 54.0 65 43.2 0.00 77.8 27.9 0.5 SSE | 161 1.4 269 -61 0.2 45.5 3.7
6/11/21 - 0100 57.1 55.3 59 42.1 0.00 77.8 27.9 0.3 SSE | 155 1.2 268 -62 0.0 48.2 3.7
6/11/21 - 0000 59.6 56.7 57 42.9 0.00 78.3 28.0 0.4 SSE | 159 1.6 268 -64 0.7 50.7 3.7
6/10/21 - 2300 61.0 59.4 50 41.5 0.00 78.6 28.0 0.4 SSE | 159 2.9 267 -67 0.0 52.7 3.7
6/10/21 - 2200 63.5 60.6 44 40.0 0.00 78.6 28.0 0.6 S | 173 2.3 266 -69 1.4 55.2 3.7
6/10/21 - 2100 66.6 62.7 39 39.2 0.00 78.6 28.0 0.8 S | 183 2.4 266 -73 1.3 61.1 3.7
6/10/21 - 2000 72.6 66.4 31 38.0 0.00 78.4 28.0 1.0 SW | 235 3.4 265 -85 2.8 71.3 3.7
6/10/21 - 1900 75.4 72.6 25 36.0 0.00 78.2 28.0 2.9 WSW | 248 7.2 264 -59 5.5 80.2 3.8
6/10/21 - 1800 80.4 75.3 20 33.8 0.00 78.0 28.0 3.7 W | 261 9.9 263 68 7.4 87.0 3.8
6/10/21 - 1700 82.8 79.3 18 33.6 0.00 77.7 27.9 3.5 WNW | 282 9.2 263 215 7.2 90.2 3.7
6/10/21 - 1600 84.0 81.0 16 31.8 0.00 77.0 27.8 2.9 WNW | 297 9.4 263 353 7.7 99.7 3.8
6/10/21 - 1500 84.8 82.7 16 32.0 0.00 76.6 27.7 2.6 NW | 308 8.6 262 474 8.1 107.9 3.8
6/10/21 - 1400 85.9 81.8 16 32.3 0.00 76.0 27.7 3.6 W | 262 10.2 262 558 7.3 132.4 3.8
6/10/21 - 1300 84.0 81.5 10 21.2 0.00 77.9 27.6 3.4 S | 182 9.7 262 611 7.3 140.6 3.8
6/10/21 - 1200 82.9 77.8 13 24.0 0.00 76.5 27.4 3.0 SSE | 166 9.1 262 621 6.4 139.2 3.8
6/10/21 - 1100 80.3 75.8 15 26.6 0.00 75.8 27.4 3.2 WSW | 247 9.3 261 588 7.1 136.2 3.7
6/10/21 - 1000 77.4 71.8 17 27.4 0.00 74.7 27.4 1.4 NNW | 346 5.7 262 513 5.7 123.7 3.8
6/10/21 - 0900 72.2 67.8 21 28.6 0.00 75.8 27.5 2.0 NE | 48 5.2 262 414 3.0 114.6 3.7
6/10/21 - 0800 68.1 63.3 27 30.8 0.00 76.0 27.7 1.9 NNE | 13 6.0 264 94 3.0 95.8 3.7
6/10/21 - 0700 63.5 58.4 35 33.3 0.00 76.4 27.7 0.9 NNW | 333 5.3 266 -23 5.3 57.4 3.7
6/10/21 - 0600 58.4 51.9 46 35.1 0.00 76.8 27.7 0.7 SSE | 164 2.4 268 -47 2.4 47.2 3.7
6/10/21 - 0500 52.5 49.8 57 36.2 0.00 76.9 27.8 1.0 SSE | 157 3.2 269 -59 1.9 42.0 3.7
6/10/21 - 0400 50.5 49.6 66 39.2 0.00 77.4 27.8 0.6 SSE | 159 2.6 270 -61 1.5 42.1 3.7
6/10/21 - 0300 50.7 49.7 67 39.6 0.00 77.5 27.9 0.6 SSE | 163 2.0 270 -61 1.4 43.0 3.7
6/10/21 - 0200 51.7 50.3 64 39.0 0.00 77.6 27.9 0.6 SSE | 160 1.7 269 -62 0.8 43.8 3.7
6/10/21 - 0100 53.6 51.1 60 38.6 0.00 77.5 28.0 0.5 S | 173 1.5 269 -63 0.0 44.6 3.7
6/10/21 - 0000 56.0 52.8 56 39.0 0.00 75.9 28.0 0.3 SE | 138 2.1 268 -66 1.6 48.7 3.7
6/9/21 - 2300 57.6 55.6 52 39.3 0.00 78.4 28.0 0.8 SSW | 196 3.4 268 -71 2.6 53.1 3.7
6/9/21 - 2200 59.6 57.4 50 39.6 0.00 79.8 28.0 2.0 SSW | 206 5.4 267 -78 3.2 55.1 3.7
6/9/21 - 2100 62.1 59.6 45 39.6 0.00 80.8 28.0 2.9 SW | 224 6.4 266 -83 4.6 57.8 3.7
6/9/21 - 2000 65.1 61.9 41 39.1 0.00 78.1 28.0 3.4 SW | 225 7.0 266 -86 4.9 62.5 3.7
6/9/21 - 1900 69.3 64.9 36 39.4 0.00 77.3 28.1 4.7 SW | 228 9.8 266 -53 7.0 71.5 3.7
6/9/21 - 1800 71.8 69.1 29 36.5 0.00 77.0 28.0 5.6 WSW | 238 10.2 265 77 7.2 77.8 3.7
6/9/21 - 1700 74.6 71.5 29 39.0 0.00 76.2 28.0 5.4 WSW | 241 11.6 264 225 8.2 83.6 3.8
6/9/21 - 1600 77.6 74.3 24 36.6 0.00 74.8 27.9 5.1 SW | 227 11.9 264 364 8.3 92.0 3.8
6/9/21 - 1500 78.4 76.2 21 33.9 0.00 76.0 27.9 4.6 S | 170 10.3 264 483 7.0 98.4 3.7
6/9/21 - 1400 78.5 76.0 22 35.3 0.00 75.4 27.8 5.2 SSE | 162 12.6 264 571 9.3 116.7 3.7
6/9/21 - 1300 78.3 76.3 26 39.7 0.00 76.3 27.7 5.2 SSE | 167 10.8 264 620 7.0 129.4 3.8
6/9/21 - 1200 78.2 75.4 30 43.0 0.00 77.1 27.7 4.2 SSE | 153 10.1 264 626 7.6 134.3 3.7
6/9/21 - 1100 78.2 74.8 34 46.5 0.00 77.6 27.6 2.2 NE | 42 8.0 264 582 7.1 135.2 3.7
6/9/21 - 1000 75.0 70.1 39 46.5 0.00 74.3 27.6 1.6 NE | 34 6.4 264 513 5.5 124.2 3.7
6/9/21 - 0900 70.9 65.6 43 45.2 0.00 76.1 27.7 1.4 NNE | 19 5.8 265 416 4.7 117.5 3.7
6/9/21 - 0800 65.7 61.4 55 46.4 0.00 76.2 27.7 0.9 NE | 47 4.1 266 110 2.5 93.3 3.7
6/9/21 - 0700 61.4 58.0 61 46.6 0.00 76.4 27.8 0.6 WSW | 253 3.8 269 27 2.3 63.9 3.7
6/9/21 - 0600 58.2 52.2 74 46.4 0.00 76.4 27.8 0.2 SSW | 193 1.9 270 -10 0.8 56.0 3.7
6/9/21 - 0500 53.0 51.9 77 45.3 0.00 77.0 27.9 0.2 SSE | 157 1.3 272 -47 0.0 46.8 3.7
6/9/21 - 0400 54.1 52.4 74 45.3 0.00 77.4 27.9 0.6 S | 182 1.9 271 -47 0.9 48.2 3.7
6/9/21 - 0300 54.7 53.8 72 45.4 0.00 79.2 27.9 0.8 S | 181 2.7 271 -47 1.5 50.1 3.7
6/9/21 - 0200 54.9 53.9 71 45.0 0.00 80.4 28.0 0.5 S | 180 1.8 271 -48 0.5 49.6 3.7
6/9/21 - 0100 56.9 54.4 67 44.8 0.00 80.5 28.0 0.4 S | 177 2.1 270 -56 0.9 51.3 3.7
6/9/21 - 0000 57.2 56.0 65 44.7 0.00 80.6 28.0 0.7 S | 186 3.2 269 -50 1.3 51.5 3.7
6/8/21 - 2300 58.3 56.6 64 45.1 0.00 77.9 28.1 0.8 S | 185 1.9 269 -62 0.9 49.9 3.7
6/8/21 - 2200 60.7 58.2 59 45.4 0.00 78.0 28.1 0.9 S | 191 2.8 269 -67 1.3 53.3 3.7
6/8/21 - 2100 63.5 60.4 54 45.0 0.00 78.2 28.1 1.0 SW | 231 3.2 268 -73 2.1 59.3 3.7
6/8/21 - 2000 67.2 63.3 50 45.8 0.00 77.6 28.1 2.3 WSW | 253 7.0 268 -77 5.1 65.3 3.7
6/8/21 - 1900 70.6 67.2 44 46.6 0.00 76.4 28.1 3.3 W | 266 9.2 267 -46 6.4 72.8 3.7
6/8/21 - 1800 73.7 70.6 41 46.8 0.00 76.0 28.1 5.1 SW | 233 9.6 266 71 6.5 80.4 3.7
6/8/21 - 1700 74.4 72.9 38 46.8 0.00 75.7 28.0 4.1 SW | 216 8.8 266 201 5.8 84.2 3.7
6/8/21 - 1600 74.6 72.7 41 48.2 0.00 76.0 28.0 5.4 SSW | 213 11.2 266 355 7.1 91.7 3.7
6/8/21 - 1500 75.1 73.2 41 48.6 0.00 74.3 27.9 4.2 SSW | 202 9.8 266 487 6.2 102.9 3.8
6/8/21 - 1400 74.5 72.0 40 47.7 0.00 76.4 27.9 4.9 S | 183 11.1 266 578 7.7 118.2 3.8
6/8/21 - 1300 74.9 71.1 40 47.2 0.00 76.1 27.8 3.9 S | 177 11.6 266 624 7.0 130.1 3.7
6/8/21 - 1200 72.9 70.0 42 46.9 0.00 75.7 27.7 4.0 S | 183 10.2 265 643 6.8 133.6 3.7
6/8/21 - 1100 71.9 68.4 44 47.7 0.00 77.0 27.7 2.5 E | 99 7.2 265 581 4.6 127.6 3.7
6/8/21 - 1000 69.7 65.4 48 47.6 0.00 76.6 27.7 2.3 ESE | 120 8.2 265 598 5.4 123.4 3.7
6/8/21 - 0900 66.2 61.6 57 47.6 0.00 76.5 27.8 2.0 S | 178 5.7 266 222 4.3 103.2 3.7
6/8/21 - 0800 63.6 60.4 62 48.6 0.00 76.9 27.8 1.3 ESE | 120 5.0 268 178 3.6 95.2 3.7
6/8/21 - 0700 60.6 58.3 68 48.5 0.00 75.5 27.9 1.2 S | 174 4.1 270 71 2.3 70.0 3.7
6/8/21 - 0600 58.5 57.6 69 48.0 0.00 76.3 27.9 1.3 S | 178 3.6 271 7 2.1 62.8 3.7
6/8/21 - 0500 57.9 57.4 71 48.2 0.00 76.4 27.9 0.9 SSE | 152 2.8 271 -19 1.5 60.0 3.7
6/8/21 - 0400 58.2 57.6 70 48.2 0.00 76.6 27.9 0.5 ESE | 122 2.0 271 -18 1.2 60.6 3.7
6/8/21 - 0300 58.2 57.6 70 48.1 0.00 76.6 28.0 0.7 ESE | 120 2.8 271 -15 1.6 60.6 3.7
6/8/21 - 0200 58.2 57.5 71 48.4 0.00 76.8 28.0 1.7 SSE | 167 4.4 271 -15 2.6 60.6 3.7
6/8/21 - 0100 58.5 57.8 73 49.4 0.00 77.2 28.0 2.0 SSE | 168 6.1 271 -15 3.0 60.7 3.7
6/8/21 - 0000 59.0 58.3 71 49.2 0.00 77.2 28.0 1.3 SSW | 210 5.5 271 -17 3.6 61.7 3.7
6/7/21 - 2300 59.4 58.6 69 48.7 0.00 80.3 28.1 1.9 S | 172 5.3 270 -17 3.6 61.8 3.7
6/7/21 - 2200 59.6 59.1 69 49.0 0.00 77.4 28.1 1.6 S | 180 3.7 270 -20 2.9 59.7 3.7
6/7/21 - 2100 59.8 59.3 69 49.3 0.00 77.5 28.1 1.7 S | 172 4.5 271 -21 3.0 60.7 3.7
6/7/21 - 2000 60.0 58.7 70 49.4 0.00 77.8 28.1 1.4 S | 172 4.1 271 -40 3.1 58.8 3.7
6/7/21 - 1900 63.2 59.8 65 49.2 0.00 77.7 28.2 2.9 S | 176 7.1 271 -49 4.5 67.7 3.7
6/7/21 - 1800 64.6 62.9 61 49.9 0.00 77.8 28.2 3.3 SSW | 194 7.5 269 55 5.0 74.0 3.7
6/7/21 - 1700 66.1 63.4 60 50.6 0.00 77.8 28.1 2.7 SSW | 197 7.8 269 174 5.2 79.0 3.7
6/7/21 - 1600 63.6 61.4 66 51.1 0.00 77.9 28.2 3.6 S | 174 8.4 269 169 4.9 79.0 3.7
6/7/21 - 1500 64.4 61.5 66 51.4 0.00 77.9 28.2 3.8 SSE | 164 10.0 270 106 7.1 76.7 3.7
6/7/21 - 1400 64.5 62.5 64 51.3 0.00 77.9 28.2 2.3 ESE | 106 8.4 269 142 4.5 81.8 3.7
6/7/21 - 1300 63.0 61.4 68 51.4 0.00 78.0 28.2 3.0 SE | 139 7.9 269 183 4.4 79.2 3.7
6/7/21 - 1200 62.4 59.7 73 52.4 0.00 78.3 28.2 2.8 SSE | 161 6.6 270 202 4.1 76.3 3.7
6/7/21 - 1100 60.2 58.5 82 53.7 0.00 78.5 28.3 2.3 SSE | 148 7.5 272 142 4.2 70.6 3.7
6/7/21 - 1000 59.3 58.4 84 53.9 0.00 78.5 28.3 1.9 SSE | 159 6.3 312 78 3.6 67.4 3.7
6/7/21 - 0900 59.5 58.3 81 52.8 0.00 78.8 28.3 1.3 S | 175 4.5 272 49 2.9 67.8 3.7
6/7/21 - 0800 60.1 58.5 74 51.0 0.00 78.8 28.4 1.6 SE | 128 6.8 271 36 2.9 66.2 3.7
6/7/21 - 0700 59.2 58.1 76 51.1 0.00 79.0 28.4 2.1 SE | 138 8.2 271 16 5.0 62.6 3.7
6/7/21 - 0600 58.8 58.2 77 51.2 0.00 79.4 28.4 1.8 S | 176 6.6 271 -5 4.9 61.1 3.7
6/7/21 - 0500 59.2 58.3 75 51.0 0.00 79.5 28.4 1.5 SSE | 167 4.6 271 -14 3.2 60.4 3.7
6/7/21 - 0400 59.2 58.6 75 50.8 0.00 79.7 28.5 1.4 SE | 128 4.2 271 -15 3.6 60.4 3.7
6/7/21 - 0300 59.1 58.3 77 51.3 0.00 79.8 28.5 1.4 SSE | 152 5.5 271 -15 2.9 60.7 3.7
6/7/21 - 0200 59.3 58.8 74 50.8 0.00 77.6 28.5 1.5 SE | 127 5.1 271 -16 3.2 60.7 3.7
6/7/21 - 0100 59.3 58.5 75 50.9 0.00 78.5 28.6 1.4 E | 94 4.9 271 -17